This is the latest recevied weather packets stored in our database for station/object XE3JAR. If no packets are shown the sender has not sent any weather packets the latest 10 day(s).
| Time | Temp. | Humidity | Pressure | Rain* | Wind** | Luminosity | Snow |
|---|---|---|---|---|---|---|---|
| 1777708960 | 30° C | 59% | 1011.8 hPa | - | - | - | - |
| 1777706239 | 30° C | 57% | 1012.2 hPa | - | - | - | - |
| 1777705932 | 30° C | 57% | 1012.2 hPa | - | - | - | - |
| 1777704701 | 30° C | 57% | 1012.5 hPa | - | - | - | - |
| 1777703185 | 31.11° C | 56% | 1012.5 hPa | - | - | - | - |
| 1777702580 | 31.11° C | 56% | 1012.5 hPa | - | - | - | - |
| 1777702279 | 31.11° C | 56% | 1012.5 hPa | - | - | - | - |
| 1777701371 | 31.11° C | 56% | 1012.5 hPa | - | - | - | - |
| 1777700763 | 31.11° C | 56% | 1012.5 hPa | - | - | - | - |
| 1777699244 | 31.11° C | 57% | 1012.5 hPa | - | - | - | - |
| 1777695299 | 32.22° C | 61% | 1012.2 hPa | - | - | - | - |
| 1777693774 | 32.22° C | 62% | 1012.2 hPa | - | - | - | - |
| 1777693469 | 32.22° C | 62% | 1011.8 hPa | - | - | - | - |
| 1777689655 | 33.89° C | 66% | 1010.8 hPa | - | - | - | - |
| 1777688438 | 33.89° C | 68% | 1010.5 hPa | - | - | - | - |
| 1777680900 | 37.22° C | 59% | 1008.1 hPa | - | - | - | - |
| 1777679980 | 37.22° C | 58% | 1008.1 hPa | - | - | - | - |
| 1777675094 | 42.22° C | 50% | 1007.4 hPa | - | - | - | - |
| 1777670322 | 47.22° C | 38% | 1007.8 hPa | - | - | - | - |
| 1777669713 | 47.78° C | 37% | 1008.1 hPa | - | - | - | - |
| 1777668519 | 47.78° C | 37% | 1008.5 hPa | - | - | - | - |
| 1777667895 | 47.78° C | 37% | 1008.5 hPa | - | - | - | - |
| 1777663935 | 47.78° C | 38% | 1010.2 hPa | - | - | - | - |
| 1777662418 | 46.11° C | 39% | 1010.8 hPa | - | - | - | - |
| 1777658149 | 45° C | 41% | 1011.5 hPa | - | - | - | - |
* Rain since midnight (hover to see other rain measurements)
** Current wind speed in m/s (hover to see current wind gust speed)